createdAt,value
2023-03-03T00:01:39.830Z,54.90
2023-03-03T00:04:06.383Z,55.70
2023-03-03T00:06:32.920Z,56.10
2023-03-03T00:08:59.445Z,54.90
2023-03-03T00:11:25.896Z,54.67
2023-03-03T00:13:54.627Z,57.53
2023-03-03T00:16:26.373Z,53.57
2023-03-03T00:18:53.918Z,53.17
2023-03-03T00:21:23.292Z,56.53
2023-03-03T00:23:50.716Z,56.73
2023-03-03T00:26:28.039Z,54.93
2023-03-03T00:28:57.134Z,55.50
2023-03-03T00:31:34.821Z,52.57
2023-03-03T00:34:25.506Z,57.53
2023-03-03T00:36:57.286Z,54.63
2023-03-03T00:39:37.023Z,52.47
2023-03-03T00:42:24.666Z,53.73
2023-03-03T00:45:00.698Z,53.20
2023-03-03T00:47:32.061Z,52.27
2023-03-03T00:50:08.465Z,50.63
2023-03-03T00:52:37.335Z,50.43
2023-03-03T00:55:05.154Z,50.57
2023-03-03T00:57:31.954Z,50.13
2023-03-03T00:59:58.477Z,50.43
2023-03-03T01:02:25.527Z,50.97
2023-03-03T01:04:54.392Z,51.07
2023-03-03T01:07:21.627Z,51.17
2023-03-03T01:09:48.380Z,50.60
2023-03-03T01:12:15.537Z,51.90
2023-03-03T01:14:42.311Z,51.63
2023-03-03T01:17:08.840Z,50.57
2023-03-03T01:19:35.392Z,50.67
2023-03-03T01:22:01.966Z,52.33
2023-03-03T01:24:28.474Z,52.87
2023-03-03T01:26:55.046Z,51.03
2023-03-03T01:29:21.526Z,50.07
2023-03-03T01:31:47.975Z,48.43
2023-03-03T01:34:14.583Z,47.97
2023-03-03T01:36:41.344Z,48.57
2023-03-03T01:39:08.047Z,49.33
2023-03-03T01:41:34.585Z,47.13
2023-03-03T01:44:01.260Z,48.20
2023-03-03T01:46:40.763Z,47.80
2023-03-03T01:49:14.608Z,49.77
2023-03-03T01:51:51.143Z,49.37
2023-03-03T01:54:39.229Z,47.63
2023-03-03T01:57:08.444Z,49.03
2023-03-03T01:59:38.098Z,46.23
2023-03-03T02:02:05.072Z,47.07
2023-03-03T02:04:31.896Z,45.30
2023-03-03T02:07:01.970Z,44.10
2023-03-03T02:09:56.202Z,43.40
2023-03-03T02:12:37.037Z,44.83
2023-03-03T02:15:22.395Z,44.37
2023-03-03T02:17:51.230Z,43.63
2023-03-03T02:20:39.653Z,43.20
2023-03-03T02:23:31.408Z,44.47
2023-03-03T02:25:59.171Z,45.23
2023-03-03T02:28:32.665Z,43.13
2023-03-03T02:31:00.370Z,41.47
2023-03-03T02:33:28.221Z,41.37
2023-03-03T02:35:55.328Z,41.60
2023-03-03T02:38:30.031Z,43.47
2023-03-03T02:41:03.829Z,42.60
2023-03-03T02:43:47.323Z,41.27
2023-03-03T02:46:14.293Z,43.43
2023-03-03T02:48:41.103Z,40.67
2023-03-03T02:51:07.687Z,41.07
2023-03-03T02:53:34.393Z,39.90
2023-03-03T02:56:00.998Z,42.37
2023-03-03T02:58:27.731Z,41.93
2023-03-03T03:00:55.629Z,40.43
2023-03-03T03:03:22.644Z,40.87
2023-03-03T03:05:49.341Z,39.53
2023-03-03T03:08:15.955Z,41.30
2023-03-03T03:10:42.410Z,40.67
2023-03-03T03:13:09.367Z,38.77
2023-03-03T03:15:36.255Z,37.63
2023-03-03T03:18:02.913Z,37.47
2023-03-03T03:20:29.413Z,36.70
2023-03-03T03:22:56.009Z,35.73
2023-03-03T03:25:22.520Z,36.87
2023-03-03T03:27:49.148Z,36.93
2023-03-03T03:30:16.104Z,36.57
2023-03-03T03:32:42.612Z,37.27
2023-03-03T03:35:09.329Z,37.03
2023-03-03T03:37:35.763Z,37.27
2023-03-03T03:40:02.172Z,35.00
2023-03-03T03:42:28.631Z,36.00
2023-03-03T03:44:55.064Z,37.20
2023-03-03T03:47:21.927Z,36.37
2023-03-03T03:49:48.493Z,37.17
2023-03-03T03:52:15.367Z,35.93
2023-03-03T03:54:41.958Z,37.93
2023-03-03T03:57:08.718Z,36.57
2023-03-03T03:59:35.265Z,33.80
2023-03-03T04:02:01.912Z,35.37
2023-03-03T04:04:28.600Z,34.33
2023-03-03T04:06:55.212Z,32.33
2023-03-03T04:09:21.657Z,35.10
2023-03-03T04:11:48.295Z,33.87
2023-03-03T04:14:14.792Z,34.27
2023-03-03T04:16:41.302Z,31.27
2023-03-03T04:19:07.880Z,32.60
2023-03-03T04:21:34.383Z,33.27
2023-03-03T04:24:00.902Z,33.43
2023-03-03T04:26:27.440Z,33.77
2023-03-03T04:28:53.948Z,33.77
2023-03-03T04:31:20.734Z,33.23
2023-03-03T04:33:47.298Z,33.87
2023-03-03T04:36:13.927Z,34.13
2023-03-03T04:38:40.525Z,33.60
2023-03-03T04:41:07.268Z,32.83
2023-03-03T04:43:33.989Z,33.07
2023-03-03T04:46:00.429Z,31.27
2023-03-03T04:48:27.025Z,31.63
2023-03-03T04:50:53.505Z,32.00
2023-03-03T04:53:19.970Z,30.27
2023-03-03T04:55:46.632Z,30.77
2023-03-03T04:58:13.197Z,30.47
2023-03-03T05:00:40.142Z,30.63
2023-03-03T05:03:07.081Z,30.07
2023-03-03T05:05:33.536Z,31.00
2023-03-03T05:08:00.037Z,29.73
2023-03-03T05:10:26.817Z,28.33
2023-03-03T05:12:53.337Z,28.03
2023-03-03T05:15:20.293Z,28.17
2023-03-03T05:17:46.807Z,28.33
2023-03-03T05:20:13.903Z,30.67
2023-03-03T05:22:40.622Z,32.87
2023-03-03T05:25:07.700Z,43.87
2023-03-03T05:27:34.410Z,30.30
2023-03-03T05:30:00.852Z,32.03
2023-03-03T05:32:27.378Z,28.03
2023-03-03T05:34:54.066Z,28.27
2023-03-03T05:37:20.810Z,30.13
2023-03-03T05:39:47.370Z,29.93
2023-03-03T05:42:14.572Z,29.47
2023-03-03T05:44:41.358Z,30.87
2023-03-03T05:47:07.951Z,29.10
2023-03-03T05:49:34.610Z,28.80
2023-03-03T05:52:01.557Z,32.10
2023-03-03T05:54:28.172Z,29.17
2023-03-03T05:56:54.619Z,29.90
2023-03-03T05:59:21.396Z,29.53
2023-03-03T06:01:47.922Z,29.77
2023-03-03T06:04:14.485Z,28.63
2023-03-03T06:06:41.022Z,27.90
2023-03-03T06:09:07.596Z,31.10
2023-03-03T06:11:34.077Z,29.17
2023-03-03T06:14:00.576Z,30.10
2023-03-03T06:16:27.162Z,31.03
2023-03-03T06:18:53.627Z,29.50
2023-03-03T06:21:20.069Z,30.83
2023-03-03T06:23:47.073Z,30.07
2023-03-03T06:26:13.725Z,31.93
2023-03-03T06:28:40.261Z,30.23
2023-03-03T06:31:06.804Z,30.40
2023-03-03T06:33:33.279Z,29.63
2023-03-03T06:35:59.963Z,29.57
2023-03-03T06:38:26.770Z,29.17
2023-03-03T06:40:53.493Z,28.37
2023-03-03T06:43:20.514Z,30.70
2023-03-03T06:45:47.123Z,28.87
2023-03-03T06:48:13.843Z,28.17
2023-03-03T06:50:40.644Z,25.87
2023-03-03T06:53:14.147Z,27.53
2023-03-03T06:55:44.326Z,27.20
2023-03-03T06:58:21.512Z,27.17
2023-03-03T07:00:57.487Z,27.90
2023-03-03T07:03:25.895Z,27.70
2023-03-03T07:05:53.628Z,28.20
2023-03-03T07:08:22.500Z,27.03
2023-03-03T07:10:50.283Z,27.23
2023-03-03T07:13:27.872Z,28.43
2023-03-03T07:15:56.355Z,28.33
2023-03-03T07:18:35.122Z,26.93
2023-03-03T07:21:17.380Z,26.43
2023-03-03T07:23:45.648Z,26.97
2023-03-03T07:26:14.222Z,28.40
2023-03-03T07:28:43.134Z,27.60
2023-03-03T07:31:36.964Z,25.77
2023-03-03T07:34:15.206Z,26.57
2023-03-03T07:36:41.823Z,27.33
2023-03-03T07:39:33.218Z,27.13
2023-03-03T07:42:09.575Z,25.47
2023-03-03T07:44:37.234Z,27.13
2023-03-03T07:47:36.353Z,26.07
2023-03-03T07:50:19.024Z,24.53
2023-03-03T07:53:14.761Z,23.70
2023-03-03T07:55:41.513Z,23.53
2023-03-03T07:58:11.238Z,22.53
2023-03-03T08:01:15.452Z,22.63
2023-03-03T08:03:44.848Z,22.57
2023-03-03T08:06:42.825Z,22.03
2023-03-03T08:09:12.335Z,20.43
2023-03-03T08:12:08.065Z,19.33
2023-03-03T08:14:36.306Z,19.77
2023-03-03T08:17:07.903Z,20.43
2023-03-03T08:19:34.433Z,19.53
2023-03-03T08:22:07.112Z,19.87
2023-03-03T08:24:33.552Z,18.50
2023-03-03T08:27:00.113Z,19.43
2023-03-03T08:29:26.486Z,20.03
2023-03-03T08:31:53.031Z,18.73
2023-03-03T08:34:20.649Z,18.27
2023-03-03T08:36:47.489Z,18.73
2023-03-03T08:39:13.996Z,17.97
2023-03-03T08:41:43.741Z,19.43
2023-03-03T08:44:11.120Z,17.90
2023-03-03T08:46:37.917Z,17.90
2023-03-03T08:49:04.472Z,18.87
2023-03-03T08:51:31.082Z,18.40
2023-03-03T08:53:57.559Z,18.10
2023-03-03T08:56:24.046Z,17.30
2023-03-03T08:59:01.878Z,16.40
2023-03-03T09:01:29.917Z,16.90
2023-03-03T09:03:56.481Z,16.20
2023-03-03T09:06:23.462Z,15.53
2023-03-03T09:08:50.338Z,16.93
2023-03-03T09:11:24.231Z,16.57
2023-03-03T09:13:53.305Z,16.90
2023-03-03T09:16:22.212Z,16.77
2023-03-03T09:18:48.753Z,15.60
2023-03-03T09:21:27.090Z,14.73
2023-03-03T09:23:58.516Z,15.30
2023-03-03T09:26:45.075Z,14.23
2023-03-03T09:29:14.416Z,13.23
2023-03-03T09:31:46.544Z,13.50
2023-03-03T09:34:21.580Z,12.97
2023-03-03T09:36:49.521Z,12.53
2023-03-03T09:39:21.187Z,12.17
2023-03-03T09:42:28.699Z,12.73
2023-03-03T09:45:17.976Z,12.30
2023-03-03T09:48:08.882Z,12.40
2023-03-03T09:50:49.383Z,12.43
2023-03-03T09:53:25.044Z,11.60
2023-03-03T09:56:08.352Z,12.97
2023-03-03T09:58:45.723Z,11.13
2023-03-03T10:01:24.496Z,11.77
2023-03-03T10:04:00.660Z,11.17
2023-03-03T10:06:45.796Z,10.57
2023-03-03T10:09:55.350Z,11.17
2023-03-03T10:12:46.467Z,11.37
2023-03-03T10:15:26.162Z,11.50
2023-03-03T10:17:54.282Z,10.30
2023-03-03T10:20:59.584Z,10.80
2023-03-03T10:23:42.432Z,11.27
2023-03-03T10:26:17.504Z,10.20
2023-03-03T10:28:58.816Z,10.97
2023-03-03T10:31:54.096Z,10.30
2023-03-03T10:34:39.348Z,9.07
2023-03-03T10:37:14.005Z,10.10
2023-03-03T10:39:54.978Z,9.03
2023-03-03T10:43:00.405Z,9.20
2023-03-03T10:46:04.015Z,9.60
2023-03-03T10:48:45.832Z,9.63
2023-03-03T10:51:25.512Z,9.27
2023-03-03T10:54:38.591Z,9.03
2023-03-03T10:57:42.855Z,9.37
2023-03-03T11:00:31.962Z,8.57
2023-03-03T11:03:36.623Z,8.40
2023-03-03T11:06:20.638Z,8.33
2023-03-03T11:08:57.585Z,8.70
2023-03-03T11:11:46.979Z,8.93
2023-03-03T11:14:38.814Z,8.37
2023-03-03T11:17:19.349Z,8.40
2023-03-03T11:20:24.303Z,8.67
2023-03-03T11:23:08.198Z,8.00
2023-03-03T11:25:56.636Z,8.67
2023-03-03T11:28:35.596Z,8.07
2023-03-03T11:31:05.121Z,7.80
2023-03-03T11:33:40.667Z,7.93
2023-03-03T11:36:13.219Z,8.80
2023-03-03T11:38:59.174Z,8.73
2023-03-03T11:41:40.861Z,8.80
2023-03-03T11:44:29.269Z,8.00
2023-03-03T11:47:32.069Z,9.60
2023-03-03T11:50:32.373Z,8.70
2023-03-03T11:53:49.660Z,8.43
2023-03-03T11:56:23.417Z,8.97
2023-03-03T11:58:58.873Z,9.67
2023-03-03T12:01:47.035Z,8.47
2023-03-03T12:04:16.299Z,9.20
2023-03-03T12:07:12.923Z,7.83
2023-03-03T12:10:09.043Z,7.90
2023-03-03T12:12:44.351Z,7.67
2023-03-03T12:15:28.016Z,7.43
2023-03-03T12:18:03.952Z,11.43
2023-03-03T12:20:48.849Z,8.80
2023-03-03T12:23:18.540Z,8.70
2023-03-03T12:25:58.762Z,8.63
2023-03-03T12:28:28.526Z,8.07
2023-03-03T12:31:14.097Z,8.90
2023-03-03T12:33:53.191Z,9.10
2023-03-03T12:36:27.778Z,7.87
2023-03-03T12:39:05.835Z,8.37
2023-03-03T12:41:53.723Z,9.63
2023-03-03T12:44:37.493Z,9.00
2023-03-03T12:47:11.402Z,9.30
2023-03-03T12:50:08.085Z,8.37
2023-03-03T12:52:57.507Z,9.73
2023-03-03T12:55:43.815Z,9.33
2023-03-03T12:58:45.834Z,8.37
2023-03-03T13:01:22.681Z,9.43
2023-03-03T13:04:10.611Z,9.93
2023-03-03T13:07:12.723Z,10.23
2023-03-03T13:10:14.426Z,11.17
2023-03-03T13:13:04.110Z,12.90
2023-03-03T13:15:55.263Z,10.77
2023-03-03T13:18:28.560Z,11.40
2023-03-03T13:21:11.437Z,11.90
2023-03-03T13:23:49.210Z,13.40
2023-03-03T13:26:45.141Z,11.90
2023-03-03T13:29:26.869Z,11.77
2023-03-03T13:31:59.978Z,12.10
2023-03-03T13:34:32.587Z,12.20
2023-03-03T13:37:06.643Z,11.67
2023-03-03T13:39:38.572Z,11.10
2023-03-03T13:42:16.164Z,9.50
2023-03-03T13:44:43.786Z,9.40
2023-03-03T13:47:25.436Z,10.07
2023-03-03T13:50:14.030Z,11.07
2023-03-03T13:52:59.692Z,10.67
2023-03-03T13:55:46.666Z,10.97
2023-03-03T13:58:16.258Z,10.77
2023-03-03T14:01:05.030Z,11.43
2023-03-03T14:03:43.794Z,9.97
2023-03-03T14:06:15.890Z,10.27
2023-03-03T14:08:56.008Z,12.27
2023-03-03T14:11:49.039Z,11.97
2023-03-03T14:14:18.373Z,13.83
2023-03-03T14:16:54.015Z,12.07
2023-03-03T14:19:23.262Z,12.90
2023-03-03T14:21:58.131Z,12.97
2023-03-03T14:24:26.601Z,12.93
2023-03-03T14:26:55.486Z,12.00
2023-03-03T14:29:35.176Z,11.27
2023-03-03T14:32:03.970Z,12.07
2023-03-03T14:34:38.778Z,11.40
2023-03-03T14:37:29.462Z,10.93
2023-03-03T14:40:22.440Z,10.53
2023-03-03T14:42:57.032Z,10.97
2023-03-03T14:45:40.591Z,11.53
2023-03-03T14:48:18.348Z,10.13
2023-03-03T14:50:52.007Z,12.57
2023-03-03T14:53:18.570Z,11.67
2023-03-03T14:55:50.310Z,11.40
2023-03-03T14:58:29.136Z,10.90
2023-03-03T15:01:33.223Z,11.30
2023-03-03T15:04:25.228Z,11.57
2023-03-03T15:06:53.854Z,12.40
2023-03-03T15:09:38.958Z,11.97
2023-03-03T15:12:19.796Z,11.83
2023-03-03T15:14:49.122Z,10.47
2023-03-03T15:17:33.604Z,10.60
2023-03-03T15:20:23.235Z,10.13
2023-03-03T15:23:32.030Z,11.10
2023-03-03T15:26:06.769Z,11.37
2023-03-03T15:28:55.211Z,11.37
2023-03-03T15:31:30.709Z,11.50
2023-03-03T15:34:16.006Z,14.00
2023-03-03T15:36:49.217Z,27.70
2023-03-03T15:40:17.869Z,16.57
2023-03-03T15:42:58.479Z,26.27
2023-03-03T15:45:43.658Z,12.50
2023-03-03T15:48:17.392Z,11.80
2023-03-03T15:50:57.095Z,11.60
2023-03-03T15:53:35.905Z,13.00
2023-03-03T15:56:21.363Z,13.57
2023-03-03T15:59:06.808Z,13.40
2023-03-03T16:01:34.990Z,13.67
2023-03-03T16:04:20.181Z,13.27
2023-03-03T16:06:58.930Z,13.80
2023-03-03T16:09:32.246Z,13.37
2023-03-03T16:12:10.237Z,12.83
2023-03-03T16:14:55.464Z,13.27
2023-03-03T16:17:40.439Z,14.03
2023-03-03T16:20:29.891Z,14.07
2023-03-03T16:23:23.343Z,15.80
2023-03-03T16:25:58.976Z,17.27
2023-03-03T16:28:47.437Z,18.60
2023-03-03T16:31:22.494Z,19.40
2023-03-03T16:33:55.278Z,21.50
2023-03-03T16:36:21.664Z,21.70
2023-03-03T16:38:53.409Z,21.73
2023-03-03T16:41:59.807Z,22.23
2023-03-03T16:44:38.430Z,19.53
2023-03-03T16:47:23.863Z,20.37
2023-03-03T16:49:55.818Z,17.40
2023-03-03T16:52:48.283Z,21.40
2023-03-03T16:56:13.422Z,20.77
2023-03-03T16:58:55.038Z,20.43
2023-03-03T17:01:43.990Z,18.40
2023-03-03T17:04:44.980Z,18.47
2023-03-03T17:07:39.427Z,20.17
2023-03-03T17:10:17.679Z,20.10
2023-03-03T17:13:16.486Z,19.37
2023-03-03T17:15:46.004Z,20.90
2023-03-03T17:18:14.511Z,23.63
2023-03-03T17:20:49.161Z,22.40
2023-03-03T17:23:21.657Z,23.60
2023-03-03T17:26:06.718Z,23.20
2023-03-03T17:28:55.657Z,24.47
2023-03-03T17:31:31.282Z,25.83
2023-03-03T17:34:10.260Z,25.40
2023-03-03T17:36:58.419Z,24.23
2023-03-03T17:39:50.244Z,25.97
2023-03-03T17:42:37.020Z,26.57
2023-03-03T17:45:14.922Z,26.67
2023-03-03T17:47:56.794Z,31.57
2023-03-03T17:50:48.215Z,28.23
2023-03-03T17:53:23.917Z,25.73
2023-03-03T17:55:56.409Z,26.20
2023-03-03T17:58:29.072Z,27.80
2023-03-03T18:01:03.197Z,27.90
2023-03-03T18:03:52.524Z,27.87
2023-03-03T18:06:43.610Z,29.07
2023-03-03T18:09:17.368Z,30.93
2023-03-03T18:12:05.204Z,27.00
2023-03-03T18:14:53.545Z,26.87
2023-03-03T18:17:39.207Z,27.30
2023-03-03T18:20:28.498Z,27.47
2023-03-03T18:22:55.396Z,28.07
2023-03-03T18:25:27.070Z,27.37
2023-03-03T18:27:59.546Z,25.17
2023-03-03T18:30:33.457Z,26.50
2023-03-03T18:33:03.332Z,25.67
2023-03-03T18:35:32.820Z,27.63
2023-03-03T18:38:17.788Z,28.17
2023-03-03T18:41:04.466Z,30.30
2023-03-03T18:43:43.154Z,28.17
2023-03-03T18:46:36.046Z,30.00
2023-03-03T18:49:10.182Z,30.23
2023-03-03T18:51:39.813Z,30.07
2023-03-03T18:54:30.917Z,29.10
2023-03-03T18:56:57.884Z,31.10
2023-03-03T18:59:30.513Z,30.57
2023-03-03T19:02:18.183Z,30.67
2023-03-03T19:05:08.766Z,31.80
2023-03-03T19:07:59.788Z,31.10
2023-03-03T19:10:49.807Z,31.20
2023-03-03T19:13:34.717Z,31.83
2023-03-03T19:16:06.436Z,30.33
2023-03-03T19:18:56.050Z,31.73
2023-03-03T19:21:28.022Z,31.33
2023-03-03T19:24:00.511Z,31.77
2023-03-03T19:26:30.258Z,30.57
2023-03-03T19:29:09.219Z,29.80
2023-03-03T19:31:49.788Z,30.23
2023-03-03T19:34:19.247Z,30.00
2023-03-03T19:37:28.403Z,30.20
2023-03-03T19:40:18.513Z,29.80
2023-03-03T19:43:36.446Z,31.40
2023-03-03T19:46:43.642Z,29.53
2023-03-03T19:49:41.275Z,30.30
2023-03-03T19:52:25.327Z,31.30
2023-03-03T19:55:04.513Z,30.03
2023-03-03T19:57:35.896Z,30.03
2023-03-03T20:00:20.687Z,31.23
2023-03-03T20:03:05.977Z,29.97
2023-03-03T20:05:35.046Z,30.60
2023-03-03T20:08:17.498Z,29.60
2023-03-03T20:10:57.670Z,29.33
2023-03-03T20:13:37.499Z,29.73
2023-03-03T20:16:30.234Z,30.80
2023-03-03T20:19:18.583Z,28.97
2023-03-03T20:21:48.166Z,28.70
2023-03-03T20:24:47.335Z,43.43
2023-03-03T20:27:20.898Z,29.90
2023-03-03T20:33:15.887Z,28.07
2023-03-03T20:36:17.816Z,28.43
2023-03-03T20:39:04.707Z,27.53
2023-03-03T20:42:09.183Z,29.63
2023-03-03T20:45:35.258Z,30.13
2023-03-03T20:48:50.160Z,28.07
2023-03-03T20:51:43.172Z,28.47
2023-03-03T20:54:59.792Z,30.27
2023-03-03T20:57:51.983Z,28.90
2023-03-03T21:00:32.027Z,28.93
2023-03-03T21:03:18.453Z,31.10
2023-03-03T21:06:01.038Z,29.73
2023-03-03T21:08:41.970Z,29.40
2023-03-03T21:11:12.785Z,30.23
2023-03-03T21:13:42.949Z,31.80
2023-03-03T21:16:21.929Z,30.83
2023-03-03T21:18:59.926Z,30.87
2023-03-03T21:21:29.216Z,32.00
2023-03-03T21:24:03.796Z,32.10
2023-03-03T21:26:47.708Z,32.27
2023-03-03T21:29:36.856Z,31.83
2023-03-03T21:32:09.713Z,33.83
2023-03-03T21:34:39.448Z,33.90
2023-03-03T21:37:11.566Z,34.57
2023-03-03T21:39:40.951Z,34.53
2023-03-03T21:42:12.354Z,32.10
2023-03-03T21:44:44.638Z,33.27
2023-03-03T21:47:14.757Z,34.40
2023-03-03T21:49:43.047Z,35.17
2023-03-03T21:52:10.758Z,34.37
2023-03-03T21:54:37.361Z,35.67
2023-03-03T21:57:04.250Z,35.30
2023-03-03T21:59:30.875Z,36.70
2023-03-03T22:01:57.534Z,34.70
2023-03-03T22:04:24.208Z,37.10
2023-03-03T22:06:52.724Z,36.40
2023-03-03T22:09:19.552Z,38.27
2023-03-03T22:11:46.063Z,37.57
2023-03-03T22:14:12.619Z,36.97
2023-03-03T22:16:39.442Z,38.20
2023-03-03T22:19:06.315Z,37.33
2023-03-03T22:21:32.753Z,37.33
2023-03-03T22:23:59.219Z,35.70
2023-03-03T22:26:26.253Z,33.97
2023-03-03T22:28:52.859Z,35.17
2023-03-03T22:31:22.523Z,34.77
2023-03-03T22:33:49.760Z,35.27
2023-03-03T22:36:16.472Z,35.20
2023-03-03T22:38:43.008Z,32.80
2023-03-03T22:41:09.533Z,35.07
2023-03-03T22:43:36.079Z,32.90
2023-03-03T22:46:02.625Z,32.37
2023-03-03T22:48:30.061Z,31.03
2023-03-03T22:50:56.513Z,31.70
2023-03-03T22:53:23.730Z,28.93
2023-03-03T22:55:50.676Z,29.53
2023-03-03T22:58:19.735Z,30.30
2023-03-03T23:00:49.381Z,27.93
2023-03-03T23:03:16.602Z,27.20
2023-03-03T23:05:43.295Z,27.70
2023-03-03T23:08:13.197Z,27.30
2023-03-03T23:10:39.980Z,27.67
2023-03-03T23:13:07.243Z,27.23
2023-03-03T23:15:34.882Z,26.07
2023-03-03T23:18:01.803Z,26.63
2023-03-03T23:20:29.658Z,29.30
2023-03-03T23:22:56.148Z,27.27
2023-03-03T23:25:23.849Z,27.20
2023-03-03T23:27:50.732Z,27.13
2023-03-03T23:30:19.398Z,27.20
2023-03-03T23:32:47.087Z,27.80
2023-03-03T23:35:14.194Z,27.57
2023-03-03T23:37:40.764Z,27.57
2023-03-03T23:40:08.234Z,29.23
2023-03-03T23:42:34.780Z,26.13
2023-03-03T23:45:01.465Z,27.97
2023-03-03T23:47:27.985Z,28.03
2023-03-03T23:49:55.133Z,28.77
2023-03-03T23:52:21.929Z,26.70
2023-03-03T23:54:48.410Z,26.50
2023-03-03T23:57:14.908Z,27.07
2023-03-03T23:59:41.361Z,27.93
